sensor_id;sensor_type;location;lat;lon;timestamp;P1;durP1;ratioP1;P2;durP2;ratioP2
25731;SDS011;13585;50.864;4.406;2023-01-16T00:00:39;2.10;;;1.10;;
25731;SDS011;13585;50.864;4.406;2023-01-16T00:03:04;1.70;;;0.88;;
25731;SDS011;13585;50.864;4.406;2023-01-16T00:05:30;2.45;;;0.93;;
25731;SDS011;13585;50.864;4.406;2023-01-16T00:07:56;3.75;;;1.17;;
25731;SDS011;13585;50.864;4.406;2023-01-16T00:10:22;0.95;;;0.73;;
25731;SDS011;13585;50.864;4.406;2023-01-16T00:12:47;2.80;;;0.77;;
25731;SDS011;13585;50.864;4.406;2023-01-16T00:15:13;1.52;;;1.00;;
25731;SDS011;13585;50.864;4.406;2023-01-16T00:17:39;2.47;;;1.05;;
25731;SDS011;13585;50.864;4.406;2023-01-16T00:20:05;1.42;;;0.85;;
25731;SDS011;13585;50.864;4.406;2023-01-16T00:22:31;1.42;;;0.90;;
25731;SDS011;13585;50.864;4.406;2023-01-16T00:24:57;1.83;;;0.88;;
25731;SDS011;13585;50.864;4.406;2023-01-16T00:27:22;2.22;;;1.00;;
25731;SDS011;13585;50.864;4.406;2023-01-16T00:29:48;2.00;;;0.90;;
25731;SDS011;13585;50.864;4.406;2023-01-16T00:32:13;1.17;;;0.80;;
25731;SDS011;13585;50.864;4.406;2023-01-16T00:34:40;2.97;;;1.00;;
25731;SDS011;13585;50.864;4.406;2023-01-16T00:37:06;2.40;;;0.95;;
25731;SDS011;13585;50.864;4.406;2023-01-16T00:39:31;1.42;;;1.02;;
25731;SDS011;13585;50.864;4.406;2023-01-16T00:41:57;1.65;;;1.10;;
25731;SDS011;13585;50.864;4.406;2023-01-16T00:44:23;2.75;;;0.95;;
25731;SDS011;13585;50.864;4.406;2023-01-16T00:46:49;1.35;;;0.80;;
25731;SDS011;13585;50.864;4.406;2023-01-16T00:49:14;1.73;;;1.05;;
25731;SDS011;13585;50.864;4.406;2023-01-16T00:51:40;1.50;;;1.00;;
25731;SDS011;13585;50.864;4.406;2023-01-16T00:54:05;2.35;;;1.00;;
25731;SDS011;13585;50.864;4.406;2023-01-16T00:56:31;2.78;;;1.10;;
25731;SDS011;13585;50.864;4.406;2023-01-16T00:58:57;2.35;;;0.95;;
25731;SDS011;13585;50.864;4.406;2023-01-16T01:01:22;1.63;;;1.10;;
25731;SDS011;13585;50.864;4.406;2023-01-16T01:03:48;1.10;;;0.93;;
25731;SDS011;13585;50.864;4.406;2023-01-16T01:06:14;1.83;;;1.10;;
25731;SDS011;13585;50.864;4.406;2023-01-16T01:08:39;1.63;;;0.90;;
25731;SDS011;13585;50.864;4.406;2023-01-16T01:11:06;1.65;;;1.08;;
25731;SDS011;13585;50.864;4.406;2023-01-16T01:13:36;1.15;;;0.90;;
25731;SDS011;13585;50.864;4.406;2023-01-16T01:16:02;1.20;;;0.80;;
25731;SDS011;13585;50.864;4.406;2023-01-16T01:18:28;2.38;;;1.10;;
25731;SDS011;13585;50.864;4.406;2023-01-16T01:20:54;1.58;;;1.10;;
25731;SDS011;13585;50.864;4.406;2023-01-16T01:23:19;1.58;;;1.00;;
25731;SDS011;13585;50.864;4.406;2023-01-16T01:25:45;1.58;;;1.00;;
25731;SDS011;13585;50.864;4.406;2023-01-16T01:28:11;3.17;;;1.00;;
25731;SDS011;13585;50.864;4.406;2023-01-16T01:30:37;1.88;;;0.95;;
25731;SDS011;13585;50.864;4.406;2023-01-16T01:33:03;1.85;;;1.10;;
25731;SDS011;13585;50.864;4.406;2023-01-16T01:35:28;1.70;;;0.88;;
25731;SDS011;13585;50.864;4.406;2023-01-16T01:37:54;2.60;;;1.20;;
25731;SDS011;13585;50.864;4.406;2023-01-16T01:40:19;2.05;;;1.20;;
25731;SDS011;13585;50.864;4.406;2023-01-16T01:42:45;2.05;;;1.10;;
25731;SDS011;13585;50.864;4.406;2023-01-16T01:47:56;2.85;;;1.27;;
25731;SDS011;13585;50.864;4.406;2023-01-16T01:55:44;2.25;;;1.10;;
25731;SDS011;13585;50.864;4.406;2023-01-16T01:58:11;2.30;;;0.93;;
25731;SDS011;13585;50.864;4.406;2023-01-16T02:00:44;3.42;;;1.20;;
25731;SDS011;13585;50.864;4.406;2023-01-16T02:03:10;2.25;;;1.20;;
25731;SDS011;13585;50.864;4.406;2023-01-16T02:05:47;2.23;;;1.13;;
25731;SDS011;13585;50.864;4.406;2023-01-16T02:08:15;1.50;;;1.10;;
25731;SDS011;13585;50.864;4.406;2023-01-16T02:10:45;2.63;;;1.25;;
25731;SDS011;13585;50.864;4.406;2023-01-16T02:13:25;2.10;;;1.10;;
25731;SDS011;13585;50.864;4.406;2023-01-16T02:15:51;3.08;;;1.15;;
25731;SDS011;13585;50.864;4.406;2023-01-16T02:18:35;3.13;;;1.00;;
25731;SDS011;13585;50.864;4.406;2023-01-16T02:21:29;1.70;;;0.90;;
25731;SDS011;13585;50.864;4.406;2023-01-16T02:32:25;3.38;;;1.05;;
25731;SDS011;13585;50.864;4.406;2023-01-16T02:40:25;2.53;;;1.30;;
25731;SDS011;13585;50.864;4.406;2023-01-16T02:48:15;2.63;;;1.35;;
25731;SDS011;13585;50.864;4.406;2023-01-16T02:51:32;2.00;;;1.33;;
25731;SDS011;13585;50.864;4.406;2023-01-16T02:57:07;1.95;;;1.05;;
25731;SDS011;13585;50.864;4.406;2023-01-16T02:59:35;2.08;;;1.30;;
25731;SDS011;13585;50.864;4.406;2023-01-16T03:02:01;4.07;;;1.40;;
25731;SDS011;13585;50.864;4.406;2023-01-16T03:04:46;2.45;;;1.05;;
25731;SDS011;13585;50.864;4.406;2023-01-16T03:15:26;2.20;;;1.27;;
25731;SDS011;13585;50.864;4.406;2023-01-16T03:20:55;2.53;;;1.25;;
25731;SDS011;13585;50.864;4.406;2023-01-16T03:31:49;1.73;;;1.20;;
25731;SDS011;13585;50.864;4.406;2023-01-16T03:40:22;2.72;;;1.20;;
25731;SDS011;13585;50.864;4.406;2023-01-16T03:42:57;2.22;;;1.30;;
25731;SDS011;13585;50.864;4.406;2023-01-16T03:48:04;2.88;;;1.30;;
25731;SDS011;13585;50.864;4.406;2023-01-16T03:50:33;2.58;;;1.40;;
25731;SDS011;13585;50.864;4.406;2023-01-16T03:53:09;2.50;;;1.40;;
25731;SDS011;13585;50.864;4.406;2023-01-16T03:55:45;2.00;;;1.30;;
25731;SDS011;13585;50.864;4.406;2023-01-16T03:58:18;2.20;;;1.05;;
25731;SDS011;13585;50.864;4.406;2023-01-16T04:09:40;1.80;;;1.15;;
25731;SDS011;13585;50.864;4.406;2023-01-16T04:12:17;1.75;;;1.10;;
25731;SDS011;13585;50.864;4.406;2023-01-16T04:14:46;2.42;;;1.35;;
25731;SDS011;13585;50.864;4.406;2023-01-16T04:17:16;1.90;;;1.20;;
25731;SDS011;13585;50.864;4.406;2023-01-16T04:19:43;3.75;;;1.40;;
25731;SDS011;13585;50.864;4.406;2023-01-16T04:22:09;2.45;;;1.20;;
25731;SDS011;13585;50.864;4.406;2023-01-16T04:24:47;2.97;;;1.30;;
25731;SDS011;13585;50.864;4.406;2023-01-16T04:27:14;2.15;;;1.30;;
25731;SDS011;13585;50.864;4.406;2023-01-16T04:29:40;2.33;;;1.30;;
25731;SDS011;13585;50.864;4.406;2023-01-16T04:32:06;2.40;;;1.33;;
25731;SDS011;13585;50.864;4.406;2023-01-16T04:34:31;3.88;;;1.33;;
25731;SDS011;13585;50.864;4.406;2023-01-16T04:36:57;2.65;;;1.30;;
25731;SDS011;13585;50.864;4.406;2023-01-16T04:39:22;2.08;;;1.20;;
25731;SDS011;13585;50.864;4.406;2023-01-16T04:41:49;2.80;;;1.25;;
25731;SDS011;13585;50.864;4.406;2023-01-16T04:44:15;1.88;;;1.00;;
25731;SDS011;13585;50.864;4.406;2023-01-16T04:46:42;2.28;;;1.27;;
25731;SDS011;13585;50.864;4.406;2023-01-16T04:49:08;2.20;;;1.13;;
25731;SDS011;13585;50.864;4.406;2023-01-16T04:51:34;2.90;;;1.42;;
25731;SDS011;13585;50.864;4.406;2023-01-16T04:54:01;3.50;;;1.30;;
25731;SDS011;13585;50.864;4.406;2023-01-16T04:56:28;2.08;;;1.20;;
25731;SDS011;13585;50.864;4.406;2023-01-16T04:58:54;3.28;;;1.30;;
25731;SDS011;13585;50.864;4.406;2023-01-16T05:01:20;2.20;;;1.05;;
25731;SDS011;13585;50.864;4.406;2023-01-16T05:03:46;2.33;;;1.30;;
25731;SDS011;13585;50.864;4.406;2023-01-16T05:06:12;2.88;;;1.27;;
25731;SDS011;13585;50.864;4.406;2023-01-16T05:08:38;1.92;;;1.17;;
25731;SDS011;13585;50.864;4.406;2023-01-16T05:11:03;3.50;;;1.50;;
25731;SDS011;13585;50.864;4.406;2023-01-16T05:13:29;2.15;;;1.00;;
25731;SDS011;13585;50.864;4.406;2023-01-16T05:15:55;2.42;;;1.33;;
25731;SDS011;13585;50.864;4.406;2023-01-16T05:18:21;2.35;;;0.93;;
25731;SDS011;13585;50.864;4.406;2023-01-16T05:20:48;2.13;;;1.00;;
25731;SDS011;13585;50.864;4.406;2023-01-16T05:23:13;1.90;;;1.30;;
25731;SDS011;13585;50.864;4.406;2023-01-16T05:25:39;2.00;;;1.33;;
25731;SDS011;13585;50.864;4.406;2023-01-16T05:28:05;3.35;;;1.40;;
25731;SDS011;13585;50.864;4.406;2023-01-16T05:30:31;2.45;;;1.30;;
25731;SDS011;13585;50.864;4.406;2023-01-16T05:32:56;1.77;;;1.20;;
25731;SDS011;13585;50.864;4.406;2023-01-16T05:35:22;2.25;;;1.00;;
25731;SDS011;13585;50.864;4.406;2023-01-16T05:37:48;2.15;;;1.10;;
25731;SDS011;13585;50.864;4.406;2023-01-16T05:40:14;1.88;;;1.00;;
25731;SDS011;13585;50.864;4.406;2023-01-16T05:42:42;3.55;;;1.23;;
25731;SDS011;13585;50.864;4.406;2023-01-16T05:45:09;2.30;;;1.00;;
25731;SDS011;13585;50.864;4.406;2023-01-16T05:47:35;3.30;;;1.05;;
25731;SDS011;13585;50.864;4.406;2023-01-16T05:50:01;2.15;;;1.20;;
25731;SDS011;13585;50.864;4.406;2023-01-16T05:52:27;2.30;;;1.20;;
25731;SDS011;13585;50.864;4.406;2023-01-16T05:54:53;2.90;;;1.38;;
25731;SDS011;13585;50.864;4.406;2023-01-16T05:57:19;2.72;;;1.13;;
25731;SDS011;13585;50.864;4.406;2023-01-16T05:59:48;1.73;;;1.10;;
25731;SDS011;13585;50.864;4.406;2023-01-16T06:02:15;2.78;;;1.38;;
25731;SDS011;13585;50.864;4.406;2023-01-16T06:04:41;2.67;;;1.10;;
25731;SDS011;13585;50.864;4.406;2023-01-16T06:07:07;2.10;;;1.10;;
25731;SDS011;13585;50.864;4.406;2023-01-16T06:09:32;2.28;;;1.35;;
25731;SDS011;13585;50.864;4.406;2023-01-16T06:11:58;1.88;;;1.10;;
25731;SDS011;13585;50.864;4.406;2023-01-16T06:14:23;2.50;;;1.30;;
25731;SDS011;13585;50.864;4.406;2023-01-16T06:16:49;2.85;;;1.20;;
25731;SDS011;13585;50.864;4.406;2023-01-16T06:19:14;4.03;;;1.27;;
25731;SDS011;13585;50.864;4.406;2023-01-16T06:21:40;2.13;;;1.13;;
25731;SDS011;13585;50.864;4.406;2023-01-16T06:24:06;2.03;;;1.10;;
25731;SDS011;13585;50.864;4.406;2023-01-16T06:26:32;1.80;;;1.10;;
25731;SDS011;13585;50.864;4.406;2023-01-16T06:28:57;2.42;;;1.30;;
25731;SDS011;13585;50.864;4.406;2023-01-16T06:31:23;2.53;;;1.30;;
25731;SDS011;13585;50.864;4.406;2023-01-16T06:33:48;2.05;;;1.17;;
25731;SDS011;13585;50.864;4.406;2023-01-16T06:36:14;1.98;;;1.23;;
25731;SDS011;13585;50.864;4.406;2023-01-16T06:38:40;2.47;;;1.02;;
25731;SDS011;13585;50.864;4.406;2023-01-16T06:41:05;3.90;;;1.40;;
25731;SDS011;13585;50.864;4.406;2023-01-16T06:43:31;2.55;;;1.10;;
25731;SDS011;13585;50.864;4.406;2023-01-16T06:45:56;3.83;;;1.35;;
25731;SDS011;13585;50.864;4.406;2023-01-16T06:48:22;1.17;;;1.00;;
25731;SDS011;13585;50.864;4.406;2023-01-16T06:50:48;1.70;;;0.80;;
25731;SDS011;13585;50.864;4.406;2023-01-16T06:53:14;2.25;;;1.17;;
25731;SDS011;13585;50.864;4.406;2023-01-16T06:55:40;2.13;;;1.00;;
25731;SDS011;13585;50.864;4.406;2023-01-16T06:58:06;3.38;;;1.17;;
25731;SDS011;13585;50.864;4.406;2023-01-16T07:00:33;2.13;;;1.20;;
25731;SDS011;13585;50.864;4.406;2023-01-16T07:02:59;3.60;;;1.00;;
25731;SDS011;13585;50.864;4.406;2023-01-16T07:05:26;1.45;;;0.95;;
25731;SDS011;13585;50.864;4.406;2023-01-16T07:07:53;2.40;;;1.20;;
25731;SDS011;13585;50.864;4.406;2023-01-16T07:10:20;1.35;;;1.02;;
25731;SDS011;13585;50.864;4.406;2023-01-16T07:12:47;1.38;;;1.08;;
25731;SDS011;13585;50.864;4.406;2023-01-16T07:15:13;1.63;;;0.90;;
25731;SDS011;13585;50.864;4.406;2023-01-16T07:17:57;2.95;;;0.90;;
25731;SDS011;13585;50.864;4.406;2023-01-16T07:20:53;1.52;;;0.80;;
25731;SDS011;13585;50.864;4.406;2023-01-16T07:23:40;2.35;;;1.10;;
25731;SDS011;13585;50.864;4.406;2023-01-16T07:26:09;3.83;;;1.10;;
25731;SDS011;13585;50.864;4.406;2023-01-16T07:28:36;1.15;;;0.70;;
25731;SDS011;13585;50.864;4.406;2023-01-16T07:31:03;1.75;;;0.90;;
25731;SDS011;13585;50.864;4.406;2023-01-16T07:33:30;1.95;;;1.02;;
25731;SDS011;13585;50.864;4.406;2023-01-16T07:35:56;1.95;;;1.00;;
25731;SDS011;13585;50.864;4.406;2023-01-16T07:38:21;1.42;;;1.00;;
25731;SDS011;13585;50.864;4.406;2023-01-16T07:40:47;2.20;;;0.93;;
25731;SDS011;13585;50.864;4.406;2023-01-16T07:43:13;1.15;;;0.70;;
25731;SDS011;13585;50.864;4.406;2023-01-16T07:45:38;1.13;;;0.90;;
25731;SDS011;13585;50.864;4.406;2023-01-16T07:48:04;1.77;;;0.80;;
25731;SDS011;13585;50.864;4.406;2023-01-16T07:50:30;1.25;;;0.80;;
25731;SDS011;13585;50.864;4.406;2023-01-16T07:52:56;1.20;;;0.80;;
25731;SDS011;13585;50.864;4.406;2023-01-16T07:55:22;1.63;;;0.77;;
25731;SDS011;13585;50.864;4.406;2023-01-16T07:57:48;3.38;;;0.93;;
25731;SDS011;13585;50.864;4.406;2023-01-16T08:00:14;1.20;;;0.90;;
25731;SDS011;13585;50.864;4.406;2023-01-16T08:02:40;1.38;;;0.95;;
25731;SDS011;13585;50.864;4.406;2023-01-16T08:05:07;2.20;;;0.73;;
25731;SDS011;13585;50.864;4.406;2023-01-16T08:07:33;2.20;;;1.00;;
25731;SDS011;13585;50.864;4.406;2023-01-16T08:09:59;1.98;;;0.90;;
25731;SDS011;13585;50.864;4.406;2023-01-16T08:12:25;1.92;;;0.80;;
25731;SDS011;13585;50.864;4.406;2023-01-16T08:14:50;2.58;;;1.05;;
25731;SDS011;13585;50.864;4.406;2023-01-16T08:17:16;1.02;;;0.60;;
25731;SDS011;13585;50.864;4.406;2023-01-16T08:19:41;1.58;;;0.73;;
25731;SDS011;13585;50.864;4.406;2023-01-16T08:22:07;1.70;;;0.82;;
25731;SDS011;13585;50.864;4.406;2023-01-16T08:24:33;0.85;;;0.60;;
25731;SDS011;13585;50.864;4.406;2023-01-16T08:26:58;1.38;;;0.85;;
25731;SDS011;13585;50.864;4.406;2023-01-16T08:29:24;2.10;;;0.75;;
25731;SDS011;13585;50.864;4.406;2023-01-16T08:31:50;1.17;;;0.90;;
25731;SDS011;13585;50.864;4.406;2023-01-16T08:34:15;1.17;;;0.80;;
25731;SDS011;13585;50.864;4.406;2023-01-16T08:36:41;1.38;;;0.80;;
25731;SDS011;13585;50.864;4.406;2023-01-16T08:39:11;2.33;;;0.90;;
25731;SDS011;13585;50.864;4.406;2023-01-16T08:41:37;1.40;;;0.80;;
25731;SDS011;13585;50.864;4.406;2023-01-16T08:44:22;3.50;;;0.73;;
25731;SDS011;13585;50.864;4.406;2023-01-16T08:47:10;3.28;;;0.90;;
25731;SDS011;13585;50.864;4.406;2023-01-16T08:49:57;1.35;;;0.90;;
25731;SDS011;13585;50.864;4.406;2023-01-16T08:52:41;0.63;;;0.60;;
25731;SDS011;13585;50.864;4.406;2023-01-16T08:55:08;1.30;;;0.75;;
25731;SDS011;13585;50.864;4.406;2023-01-16T08:57:33;1.10;;;0.70;;
25731;SDS011;13585;50.864;4.406;2023-01-16T09:00:00;1.42;;;0.63;;
25731;SDS011;13585;50.864;4.406;2023-01-16T09:02:26;1.38;;;0.60;;
25731;SDS011;13585;50.864;4.406;2023-01-16T09:04:52;0.85;;;0.57;;
25731;SDS011;13585;50.864;4.406;2023-01-16T09:07:19;1.00;;;0.70;;
25731;SDS011;13585;50.864;4.406;2023-01-16T09:09:45;1.25;;;0.80;;
25731;SDS011;13585;50.864;4.406;2023-01-16T09:12:11;1.52;;;0.80;;
25731;SDS011;13585;50.864;4.406;2023-01-16T09:14:56;0.90;;;0.60;;
25731;SDS011;13585;50.864;4.406;2023-01-16T09:17:22;1.20;;;0.80;;
25731;SDS011;13585;50.864;4.406;2023-01-16T09:19:49;1.90;;;0.80;;
25731;SDS011;13585;50.864;4.406;2023-01-16T09:22:15;2.78;;;0.80;;
25731;SDS011;13585;50.864;4.406;2023-01-16T09:24:40;1.35;;;0.55;;
25731;SDS011;13585;50.864;4.406;2023-01-16T09:27:06;1.17;;;0.60;;
25731;SDS011;13585;50.864;4.406;2023-01-16T09:29:32;1.08;;;0.70;;
25731;SDS011;13585;50.864;4.406;2023-01-16T09:31:58;1.13;;;0.70;;
25731;SDS011;13585;50.864;4.406;2023-01-16T09:34:23;0.80;;;0.50;;
25731;SDS011;13585;50.864;4.406;2023-01-16T09:36:50;2.13;;;0.98;;
25731;SDS011;13585;50.864;4.406;2023-01-16T09:39:16;0.77;;;0.68;;
25731;SDS011;13585;50.864;4.406;2023-01-16T09:41:50;0.95;;;0.60;;
25731;SDS011;13585;50.864;4.406;2023-01-16T09:44:43;1.25;;;0.70;;
25731;SDS011;13585;50.864;4.406;2023-01-16T09:47:12;1.23;;;0.75;;
25731;SDS011;13585;50.864;4.406;2023-01-16T09:49:43;0.95;;;0.60;;
25731;SDS011;13585;50.864;4.406;2023-01-16T09:52:15;2.58;;;0.75;;
25731;SDS011;13585;50.864;4.406;2023-01-16T09:55:04;0.47;;;0.45;;
25731;SDS011;13585;50.864;4.406;2023-01-16T09:57:58;1.60;;;0.80;;
25731;SDS011;13585;50.864;4.406;2023-01-16T10:00:43;1.10;;;0.60;;
25731;SDS011;13585;50.864;4.406;2023-01-16T10:03:09;0.50;;;0.43;;
25731;SDS011;13585;50.864;4.406;2023-01-16T10:05:40;0.98;;;0.50;;
25731;SDS011;13585;50.864;4.406;2023-01-16T10:10:58;1.38;;;0.60;;
25731;SDS011;13585;50.864;4.406;2023-01-16T10:16:25;1.58;;;0.82;;
25731;SDS011;13585;50.864;4.406;2023-01-16T10:19:21;0.93;;;0.70;;
25731;SDS011;13585;50.864;4.406;2023-01-16T10:25:15;0.80;;;0.40;;
25731;SDS011;13585;50.864;4.406;2023-01-16T10:28:03;1.65;;;0.75;;
25731;SDS011;13585;50.864;4.406;2023-01-16T10:30:49;1.10;;;0.60;;
25731;SDS011;13585;50.864;4.406;2023-01-16T10:33:35;1.05;;;0.50;;
25731;SDS011;13585;50.864;4.406;2023-01-16T10:36:10;0.73;;;0.50;;
25731;SDS011;13585;50.864;4.406;2023-01-16T10:38:47;0.57;;;0.57;;
25731;SDS011;13585;50.864;4.406;2023-01-16T10:41:21;1.45;;;0.60;;
25731;SDS011;13585;50.864;4.406;2023-01-16T10:44:18;1.20;;;0.60;;
25731;SDS011;13585;50.864;4.406;2023-01-16T10:47:09;0.90;;;0.68;;
25731;SDS011;13585;50.864;4.406;2023-01-16T10:49:54;1.13;;;0.70;;
25731;SDS011;13585;50.864;4.406;2023-01-16T10:52:20;1.05;;;0.60;;
25731;SDS011;13585;50.864;4.406;2023-01-16T10:54:46;0.80;;;0.60;;
25731;SDS011;13585;50.864;4.406;2023-01-16T10:57:16;0.90;;;0.55;;
25731;SDS011;13585;50.864;4.406;2023-01-16T10:59:46;1.85;;;0.60;;
25731;SDS011;13585;50.864;4.406;2023-01-16T11:02:17;0.98;;;0.60;;
25731;SDS011;13585;50.864;4.406;2023-01-16T11:04:49;0.98;;;0.50;;
25731;SDS011;13585;50.864;4.406;2023-01-16T11:07:17;1.05;;;0.50;;
25731;SDS011;13585;50.864;4.406;2023-01-16T11:09:44;1.15;;;0.70;;
25731;SDS011;13585;50.864;4.406;2023-01-16T11:12:11;1.35;;;0.50;;
25731;SDS011;13585;50.864;4.406;2023-01-16T11:15:12;1.63;;;0.60;;
25731;SDS011;13585;50.864;4.406;2023-01-16T11:20:53;0.52;;;0.47;;
25731;SDS011;13585;50.864;4.406;2023-01-16T11:23:22;0.52;;;0.40;;
25731;SDS011;13585;50.864;4.406;2023-01-16T11:25:49;0.63;;;0.50;;
25731;SDS011;13585;50.864;4.406;2023-01-16T11:28:22;1.30;;;0.40;;
25731;SDS011;13585;50.864;4.406;2023-01-16T11:30:52;1.58;;;0.50;;
25731;SDS011;13585;50.864;4.406;2023-01-16T11:33:34;0.65;;;0.60;;
25731;SDS011;13585;50.864;4.406;2023-01-16T11:36:03;1.13;;;0.50;;
25731;SDS011;13585;50.864;4.406;2023-01-16T11:38:32;1.75;;;0.60;;
25731;SDS011;13585;50.864;4.406;2023-01-16T11:41:00;0.65;;;0.60;;
25731;SDS011;13585;50.864;4.406;2023-01-16T11:43:28;0.95;;;0.50;;
25731;SDS011;13585;50.864;4.406;2023-01-16T11:49:04;2.63;;;0.50;;
25731;SDS011;13585;50.864;4.406;2023-01-16T11:51:39;4.68;;;2.53;;
25731;SDS011;13585;50.864;4.406;2023-01-16T12:07:58;1.42;;;1.13;;
25731;SDS011;13585;50.864;4.406;2023-01-16T12:10:43;2.05;;;1.00;;
25731;SDS011;13585;50.864;4.406;2023-01-16T12:13:17;1.58;;;0.80;;
25731;SDS011;13585;50.864;4.406;2023-01-16T12:16:19;1.55;;;0.68;;
25731;SDS011;13585;50.864;4.406;2023-01-16T12:19:09;1.73;;;0.90;;
25731;SDS011;13585;50.864;4.406;2023-01-16T12:21:58;1.48;;;0.77;;
25731;SDS011;13585;50.864;4.406;2023-01-16T12:27:23;2.17;;;1.10;;
25731;SDS011;13585;50.864;4.406;2023-01-16T12:33:31;2.58;;;0.82;;
25731;SDS011;13585;50.864;4.406;2023-01-16T12:48:27;1.85;;;0.60;;
25731;SDS011;13585;50.864;4.406;2023-01-16T12:54:16;1.55;;;0.88;;
25731;SDS011;13585;50.864;4.406;2023-01-16T12:57:21;2.17;;;0.85;;
25731;SDS011;13585;50.864;4.406;2023-01-16T13:00:17;14.52;;;7.90;;
25731;SDS011;13585;50.864;4.406;2023-01-16T13:02:53;11.85;;;7.22;;
25731;SDS011;13585;50.864;4.406;2023-01-16T13:05:46;7.35;;;4.13;;
25731;SDS011;13585;50.864;4.406;2023-01-16T13:10:50;6.07;;;2.78;;
25731;SDS011;13585;50.864;4.406;2023-01-16T13:13:42;3.87;;;2.30;;
25731;SDS011;13585;50.864;4.406;2023-01-16T13:16:29;2.47;;;1.65;;
25731;SDS011;13585;50.864;4.406;2023-01-16T13:19:00;3.83;;;2.33;;
25731;SDS011;13585;50.864;4.406;2023-01-16T13:21:55;4.97;;;2.10;;
25731;SDS011;13585;50.864;4.406;2023-01-16T13:24:30;4.30;;;2.20;;
25731;SDS011;13585;50.864;4.406;2023-01-16T13:27:15;4.57;;;2.60;;
25731;SDS011;13585;50.864;4.406;2023-01-16T13:29:47;2.42;;;1.85;;
25731;SDS011;13585;50.864;4.406;2023-01-16T13:35:04;2.67;;;1.90;;
25731;SDS011;13585;50.864;4.406;2023-01-16T13:38:02;2.78;;;1.95;;
25731;SDS011;13585;50.864;4.406;2023-01-16T13:47:05;2.10;;;1.40;;
25731;SDS011;13585;50.864;4.406;2023-01-16T13:49:41;2.65;;;1.63;;
25731;SDS011;13585;50.864;4.406;2023-01-16T13:52:35;3.10;;;1.70;;
25731;SDS011;13585;50.864;4.406;2023-01-16T13:55:01;3.13;;;1.50;;
25731;SDS011;13585;50.864;4.406;2023-01-16T13:57:31;3.10;;;1.80;;
25731;SDS011;13585;50.864;4.406;2023-01-16T13:59:58;2.22;;;1.50;;
25731;SDS011;13585;50.864;4.406;2023-01-16T14:02:38;2.45;;;1.40;;
25731;SDS011;13585;50.864;4.406;2023-01-16T14:05:29;2.05;;;1.27;;
25731;SDS011;13585;50.864;4.406;2023-01-16T14:08:16;2.30;;;1.30;;
25731;SDS011;13585;50.864;4.406;2023-01-16T14:17:15;2.28;;;1.40;;
25731;SDS011;13585;50.864;4.406;2023-01-16T14:22:18;3.78;;;1.80;;
25731;SDS011;13585;50.864;4.406;2023-01-16T14:24:47;3.47;;;1.70;;
25731;SDS011;13585;50.864;4.406;2023-01-16T14:27:17;2.60;;;1.55;;
25731;SDS011;13585;50.864;4.406;2023-01-16T14:29:49;2.00;;;1.30;;
25731;SDS011;13585;50.864;4.406;2023-01-16T14:32:25;2.42;;;1.50;;
25731;SDS011;13585;50.864;4.406;2023-01-16T14:37:41;3.50;;;1.77;;
25731;SDS011;13585;50.864;4.406;2023-01-16T14:42:55;2.50;;;1.77;;
25731;SDS011;13585;50.864;4.406;2023-01-16T14:45:40;1.75;;;1.27;;
25731;SDS011;13585;50.864;4.406;2023-01-16T14:51:30;2.17;;;1.42;;
25731;SDS011;13585;50.864;4.406;2023-01-16T14:54:24;2.63;;;1.40;;
25731;SDS011;13585;50.864;4.406;2023-01-16T14:57:22;3.13;;;1.50;;
25731;SDS011;13585;50.864;4.406;2023-01-16T15:02:34;2.47;;;1.50;;
25731;SDS011;13585;50.864;4.406;2023-01-16T15:10:25;2.45;;;1.20;;
25731;SDS011;13585;50.864;4.406;2023-01-16T15:13:19;3.47;;;1.70;;
25731;SDS011;13585;50.864;4.406;2023-01-16T15:15:58;1.92;;;1.40;;
25731;SDS011;13585;50.864;4.406;2023-01-16T15:18:26;1.52;;;1.08;;
25731;SDS011;13585;50.864;4.406;2023-01-16T15:21:15;1.70;;;1.30;;
25731;SDS011;13585;50.864;4.406;2023-01-16T15:24:01;2.40;;;1.50;;
25731;SDS011;13585;50.864;4.406;2023-01-16T15:29:42;1.65;;;1.30;;
25731;SDS011;13585;50.864;4.406;2023-01-16T15:32:10;2.03;;;1.20;;
25731;SDS011;13585;50.864;4.406;2023-01-16T15:34:46;1.92;;;1.33;;
25731;SDS011;13585;50.864;4.406;2023-01-16T15:37:22;1.77;;;1.10;;
25731;SDS011;13585;50.864;4.406;2023-01-16T15:39:52;1.92;;;1.27;;
25731;SDS011;13585;50.864;4.406;2023-01-16T15:42:22;1.58;;;1.15;;
25731;SDS011;13585;50.864;4.406;2023-01-16T15:48:19;1.58;;;1.17;;
25731;SDS011;13585;50.864;4.406;2023-01-16T15:51:08;1.73;;;1.20;;
25731;SDS011;13585;50.864;4.406;2023-01-16T15:53:42;2.15;;;1.40;;
25731;SDS011;13585;50.864;4.406;2023-01-16T15:56:21;1.88;;;1.20;;
25731;SDS011;13585;50.864;4.406;2023-01-16T15:58:52;1.60;;;1.17;;
25731;SDS011;13585;50.864;4.406;2023-01-16T16:01:26;1.33;;;1.05;;
25731;SDS011;13585;50.864;4.406;2023-01-16T16:03:53;1.17;;;0.90;;
25731;SDS011;13585;50.864;4.406;2023-01-16T16:06:19;1.90;;;1.30;;
25731;SDS011;13585;50.864;4.406;2023-01-16T16:08:47;1.95;;;1.20;;
25731;SDS011;13585;50.864;4.406;2023-01-16T16:11:18;2.83;;;1.27;;
25731;SDS011;13585;50.864;4.406;2023-01-16T16:14:11;1.17;;;1.00;;
25731;SDS011;13585;50.864;4.406;2023-01-16T16:17:26;3.25;;;1.40;;
25731;SDS011;13585;50.864;4.406;2023-01-16T16:23:01;1.30;;;1.10;;
25731;SDS011;13585;50.864;4.406;2023-01-16T16:25:36;1.50;;;1.02;;
25731;SDS011;13585;50.864;4.406;2023-01-16T16:30:57;1.35;;;0.85;;
25731;SDS011;13585;50.864;4.406;2023-01-16T16:33:29;0.98;;;0.93;;
25731;SDS011;13585;50.864;4.406;2023-01-16T16:35:57;1.48;;;1.05;;
25731;SDS011;13585;50.864;4.406;2023-01-16T16:38:27;1.25;;;1.08;;
25731;SDS011;13585;50.864;4.406;2023-01-16T16:43:43;1.55;;;0.95;;
25731;SDS011;13585;50.864;4.406;2023-01-16T16:48:51;1.70;;;1.00;;
25731;SDS011;13585;50.864;4.406;2023-01-16T16:51:18;1.98;;;0.88;;
25731;SDS011;13585;50.864;4.406;2023-01-16T16:53:53;1.15;;;1.00;;
25731;SDS011;13585;50.864;4.406;2023-01-16T16:56:22;1.10;;;0.90;;
25731;SDS011;13585;50.864;4.406;2023-01-16T16:58:51;1.75;;;1.13;;
25731;SDS011;13585;50.864;4.406;2023-01-16T17:01:20;1.20;;;1.00;;
25731;SDS011;13585;50.864;4.406;2023-01-16T17:03:49;1.10;;;0.88;;
25731;SDS011;13585;50.864;4.406;2023-01-16T17:06:18;1.13;;;0.90;;
25731;SDS011;13585;50.864;4.406;2023-01-16T17:08:47;0.88;;;0.80;;
25731;SDS011;13585;50.864;4.406;2023-01-16T17:11:13;1.00;;;0.90;;
25731;SDS011;13585;50.864;4.406;2023-01-16T17:13:39;1.67;;;1.00;;
25731;SDS011;13585;50.864;4.406;2023-01-16T17:16:10;1.40;;;0.95;;
25731;SDS011;13585;50.864;4.406;2023-01-16T17:18:43;1.33;;;0.88;;
25731;SDS011;13585;50.864;4.406;2023-01-16T17:21:10;1.30;;;1.00;;
25731;SDS011;13585;50.864;4.406;2023-01-16T17:23:41;1.30;;;0.90;;
25731;SDS011;13585;50.864;4.406;2023-01-16T17:26:07;1.08;;;0.98;;
25731;SDS011;13585;50.864;4.406;2023-01-16T17:28:35;2.10;;;0.80;;
25731;SDS011;13585;50.864;4.406;2023-01-16T17:31:00;1.52;;;0.90;;
25731;SDS011;13585;50.864;4.406;2023-01-16T17:33:26;2.33;;;0.77;;
25731;SDS011;13585;50.864;4.406;2023-01-16T17:35:54;0.80;;;0.80;;
25731;SDS011;13585;50.864;4.406;2023-01-16T17:38:39;1.48;;;0.90;;
25731;SDS011;13585;50.864;4.406;2023-01-16T17:41:11;1.60;;;1.10;;
25731;SDS011;13585;50.864;4.406;2023-01-16T17:43:45;1.92;;;0.98;;
25731;SDS011;13585;50.864;4.406;2023-01-16T17:46:29;1.35;;;1.02;;
25731;SDS011;13585;50.864;4.406;2023-01-16T17:48:55;2.83;;;0.98;;
25731;SDS011;13585;50.864;4.406;2023-01-16T17:51:20;1.92;;;1.05;;
25731;SDS011;13585;50.864;4.406;2023-01-16T17:53:49;4.15;;;1.00;;
25731;SDS011;13585;50.864;4.406;2023-01-16T17:56:15;6.97;;;1.27;;
25731;SDS011;13585;50.864;4.406;2023-01-16T17:58:43;7.68;;;1.15;;
25731;SDS011;13585;50.864;4.406;2023-01-16T18:01:23;3.90;;;1.30;;
25731;SDS011;13585;50.864;4.406;2023-01-16T18:03:51;4.82;;;1.27;;
25731;SDS011;13585;50.864;4.406;2023-01-16T18:06:34;2.60;;;1.30;;